McLeod, ND (58057)

6:22 PM CDT on July 30, 2016 (GMT -0500)
Hall Township | | Change Station

Elev 1079 ft 46.22 °N, 97.36 °W | Updated 5 minutes ago

Partly Cloudy
Partly Cloudy
79.7 °F
Feels Like 81 °F
N
11.4
Wind Variable Wind from ESE

Today
High -- | Low -- °F
--% Chance of Precip.
Yesterday
High -- | Low -- °F
Precip. -- in
Pressure 29.91 in
Visibility 10.0 miles
Clouds Few 5500 ft
Heat Index 81 °F
Dew Point 62 °F
Humidity 55%
Rainfall 0.00 in
Snow Depth Not available.
6:07 AM 9:01 PM
Waning Crescent, 10% visible
METAR KGWR 302315Z AUTO 13011G15KT 10SM FEW055 27/17 A2991 RMK AO1
Pressure 29.91 in
Visibility 10.0 miles
Clouds Few 5500 ft
Heat Index 81 °F
Dew Point 62 °F
Humidity 55%
Rainfall 0.00 in
Snow Depth Not available.
6:07 AM 9:01 PM
Waning Crescent, 10% visible
METAR KGWR 302315Z AUTO 13011G15KT 10SM FEW055 27/17 A2991 RMK AO1

10-Day Weather Forecast

Almanac

Astronomy

Jul. 30, 2016 Rise Set
Actual Time
Civil Twilight
Nautical Twilight
Astronomical Twilight
Moon
Length of Visible Light
Length of Day
Tomorrow will be .
, % of the Moon is Illuminated

Today's Extremes

State Highs State Lows

Community

WunderPhotos

Upload Photos

1,928,675 photos uploaded!

WunderBlog® & News

Nearby

Air Quality

  Air Quality AQ Index Pollutant
Not available.

Snow Depth

Station Depth Elevation

Earthquake Activity

City Distance Mag. Time & Date
Minimum magnitude displayed is 2.5.

Coastal Water Temperatures

Place Temperature

Stations

Nearby Weather Stations

Station Location Temp. Windchill Dew Point Humidity Wind Precip. Elev Updated Type
                   

Watches & Warnings

There are currently no watches in effect.